PST,Max TemperatureF,Mean TemperatureF,Min TemperatureF,Max Dew PointF,MeanDew PointF,Min DewpointF,Max Humidity, Mean Humidity, Min Humidity, Max Sea Level PressureIn, Mean Sea Level PressureIn, Min Sea Level PressureIn, Max VisibilityMiles, Mean VisibilityMiles, Min VisibilityMiles, Max Wind SpeedMPH, Mean Wind SpeedMPH, Max Gust SpeedMPH,PrecipitationIn, CloudCover, Events, WindDirDegrees
2012-11-1,57,54,51,54,52,50,100,94,88,30.01,29.84,29.69,10,8,2,13,7,16,0.66,8,Rain,129
2012-11-2,55,53,51,53,52,50,100,94,87,30.02,29.99,29.94,10,8,3,12,7,,0.34,8,Rain,66
2012-11-3,57,53,51,55,54,52,100,98,93,30.17,30.07,29.94,10,5,2,20,8,25,0.15,8,Rain,147
2012-11-4,59,56,55,57,56,54,100,98,93,30.33,30.22,30.15,10,4,1,20,8,26,0.66,8,Rain,118
2012-11-5,57,52,48,52,49,43,100,92,70,30.40,30.34,30.15,10,6,0,10,3,,0.00,5,Fog,7
2012-11-6,55,50,44,54,49,43,100,92,80,30.13,30.04,30.00,10,8,2,16,9,20,0.09,6,Rain,173
2012-11-7,51,47,43,46,42,40,97,86,67,30.16,30.09,29.93,10,9,2,17,4,21,0.19,5,Rain,56
2012-11-8,53,44,35,43,39,34,97,87,57,29.91,29.85,29.81,10,10,7,14,6,22,0.01,3,,49
2012-11-9,48,40,33,39,34,32,100,89,59,29.97,29.89,29.86,10,8,0,9,5,,0.01,3,Fog,57
2012-11-10,46,38,30,34,32,30,96,80,56,30.20,30.10,29.97,10,9,6,10,5,,0.00,3,,62
2012-11-11,51,43,35,49,41,32,100,93,88,30.20,30.09,30.01,10,6,2,21,11,33,1.20,8,Rain,71
2012-11-12,54,50,46,52,49,46,100,95,82,30.21,30.12,30.02,10,7,0,23,9,39,0.29,8,Fog-Rain,167
2012-11-13,52,49,46,50,48,45,100,96,88,30.21,30.17,30.12,10,7,1,9,4,,0.35,7,Rain,111
2012-11-14,54,48,39,48,46,39,100,95,75,30.32,30.26,30.20,10,6,0,9,2,,0.02,5,Fog-Rain,131
2012-11-15,48,42,37,43,40,36,100,92,80,30.24,30.08,29.93,10,8,2,15,7,,0.01,4,,62
2012-11-16,51,45,39,49,42,39,100,93,80,29.94,29.85,29.65,10,7,3,13,9,,0.17,7,Rain,60
2012-11-17,51,48,46,50,46,42,100,91,86,29.68,29.57,29.48,10,7,2,18,12,28,0.90,8,Rain,152
2012-11-18,53,48,44,50,46,43,100,91,82,29.72,29.59,29.44,10,6,2,25,13,38,1.45,8,Rain,112
2012-11-19,55,50,46,54,50,45,100,92,83,29.67,29.45,29.32,10,6,1,41,16,61,2.84,8,Rain,161
2012-11-20,52,49,44,48,45,41,100,89,77,29.67,29.60,29.50,10,8,1,34,10,44,0.52,6,Rain,110
2012-11-21,48,44,39,45,41,38,100,85,69,30.29,29.80,29.51,10,9,3,24,8,32,0.62,6,Rain,196
2012-11-22,46,42,39,42,39,37,96,86,73,30.33,30.27,30.19,10,10,7,14,10,,0.16,6,Rain,59
2012-11-23,53,48,44,52,49,42,100,96,88,30.17,30.08,30.02,10,4,1,20,10,31,1.52,8,Rain,195
2012-11-24,50,42,33,46,41,34,100,97,80,30.29,30.24,30.19,10,4,0,8,2,,0.01,5,Fog,52
2012-11-25,48,40,33,41,36,34,100,93,66,30.35,30.30,30.19,10,4,0,9,5,,0.00,5,Fog,37
2012-11-26,48,42,37,37,35,33,93,78,59,30.17,30.07,30.02,10,10,10,15,11,,0.00,1,,63
2012-11-27,51,45,39,42,39,37,93,84,66,30.06,29.99,29.88,10,10,9,13,10,,0.00,5,,69
2012-11-28,53,46,39,49,42,38,97,88,76,29.86,29.66,29.55,10,9,3,18,12,26,0.09,7,Rain,66
2012-11-29,51,48,46,50,47,45,97,91,83,29.63,29.52,29.40,10,7,1,17,11,25,0.50,8,Rain,75
2012-11-30,54,51,48,52,49,46,100,89,82,29.42,29.37,29.31,10,6,2,29,16,40,1.41,8,Rain,142